Linda — OJML — position and weather

sailwx.info

Track history (hours):
 
Tides and Currents Weather Stations Pressure Air Temp Water Temp Dewpoint Dewpoint Depression Visibility Wind Speed Wind Dir Waves Ship Positions

Linda

Last reported at 2016-Dec-04 00:09 UTC. Time now 2016-Dec-04 08:15 UTC.
Position N 57°45' E 010°20'.

Length 141 m; draft 8.6 m.

Type: Ship (hazmat cat A). MMSI: 230984000.

Date/timePositionNaut miles runAvg speedWind from/ knotsBaromVisibWave heightAir tempDewpointWater temp
2016-Dec-04 00:09N 57°45' E 010°20'915.7
2016-Dec-03 23:33N 57°48' E 010°37'1515.3
2016-Dec-03 22:33N 57°40' E 011°02'1615.8
2016-Dec-03 21:33N 57°29' E 011°23'1615.6
2016-Dec-03 20:33N 57°15' E 011°34'1615.4
2016-Dec-03 19:32N 57°00' E 011°44'1615.8
2016-Dec-03 18:32N 56°45' E 011°53'10314.7
2016-Dec-03 11:33N 55°06' E 011°03'1615.5
2016-Dec-03 10:33N 54°52' E 010°53'1414.2
2016-Dec-03 09:33N 54°39' E 011°02'1515.3
2016-Dec-03 08:33N 54°32' E 011°26'1615.5
2016-Dec-03 07:33N 54°26' E 011°51'1612.6
2016-Dec-03 06:17N 54°35' E 012°14'1315.2
2016-Dec-03 05:25N 54°43' E 012°32'3515.8
2016-Dec-03 03:13N 54°56' E 013°28'1116.5
2016-Dec-03 02:34N 54°59' E 013°46'1615.9
2016-Dec-03 01:33N 55°08' E 014°10'1716.6
2016-Dec-03 00:33N 55°21' E 014°28'1616.1
2016-Dec-02 23:33N 55°31' E 014°50'1616.0
2016-Dec-02 22:34N 55°39' E 015°14'340 7.0
2016-Nov-30 22:15N 59°33' E 022°54'1115.7
2016-Nov-30 21:33N 59°37' E 023°14'1615.5
2016-Nov-30 20:33N 59°42' E 023°43'1615.5
2016-Nov-30 19:33N 59°47' E 024°13'39 1.1
2016-Nov-29 09:33N 60°12' E 025°13'15 2.5
2016-Nov-29 03:33N 59°58' E 025°03'1313.1
2016-Nov-29 02:33N 59°56' E 025°29'1613.6
2016-Nov-29 01:23N 59°57' E 026°01'1313.9
2016-Nov-29 00:27N 60°00' E 026°26'1213.4
2016-Nov-28 23:34N 60°00' E 026°50'3213.2
2016-Nov-28 21:08N 60°12' E 027°50'1213.5
2016-Nov-28 20:15N 60°09' E 028°13'913.0
2016-Nov-28 19:33N 60°04' E 028°29'37 6.1
2016-Nov-28 13:25N 60°00' E 029°43'0 0.0
2016-Nov-28 12:28N 60°00' E 029°43'0 0.0
2016-Nov-28 11:31N 60°00' E 029°43'0 0.0
2016-Nov-28 10:19N 60°00' E 029°43'0 0.0
2016-Nov-28 09:31N 60°00' E 029°43'0 0.0
2016-Nov-28 08:25N 60°00' E 029°43'0 0.0
2016-Nov-28 07:31N 60°00' E 029°43'0 0.0
2016-Nov-28 06:31N 60°00' E 029°43'0 0.0
2016-Nov-28 05:32N 60°00' E 029°43'3 2.9
2016-Nov-28 04:33N 60°00' E 029°37'1313.2
2016-Nov-28 03:33N 60°02' E 029°11'1514.9
2016-Nov-28 02:33N 60°02' E 028°41'1414.2
2016-Nov-28 01:33N 60°07' E 028°14'1514.6
2016-Nov-28 00:33N 60°10' E 027°46'1414.4
2016-Nov-27 23:33N 60°03' E 027°21'2113.9
2016-Nov-27 22:04N 59°59' E 026°40'6213.7
2016-Nov-27 17:33N 59°45' E 024°40'3315.1
2016-Nov-27 15:21N 59°35' E 023°37'341 7.4
2016-Nov-25 17:27N 55°44' E 015°47'1516.5
2016-Nov-25 16:33N 55°37' E 015°24'1716.8
2016-Nov-25 15:33N 55°29' E 014°58'1716.5
2016-Nov-25 14:33N 55°20' E 014°34'1716.6
2016-Nov-25 13:33N 55°07' E 014°15'1616.1
2016-Nov-25 12:33N 54°58' E 013°52'1716.5
2016-Nov-25 11:33N 54°51' E 013°26'2016.5
2016-Nov-25 10:21N 54°44' E 012°54'1315.9
2016-Nov-25 09:33N 54°38' E 012°34'1515.2
2016-Nov-25 08:33N 54°28' E 012°15'1514.8
2016-Nov-25 07:32N 54°25' E 011°50'1616.1
2016-Nov-25 06:33N 54°31' E 011°25'1616.2
2016-Nov-25 05:33N 54°35' E 010°58'1616.0
2016-Nov-25 04:33N 54°32' E 010°30'1313.2
2016-Nov-25 03:33N 54°24' E 010°12'3 3.2
2016-Nov-25 02:33N 54°22' E 010°08'6 5.8
2016-Nov-25 01:33N 54°21' E 009°59'7 7.3
2016-Nov-25 00:33N 54°21' E 009°46'8 7.6
2016-Nov-24 23:32N 54°15' E 009°37'7 6.7
2016-Nov-24 22:33N 54°11' E 009°29'8 7.2
2016-Nov-24 21:30N 54°06' E 009°20'7 7.3
2016-Nov-24 20:33N 53°59' E 009°17'7 7.1
2016-Nov-24 19:33N 53°54' E 009°09'1 0.6
2016-Nov-24 18:33N 53°53' E 009°08'1312.5
2016-Nov-24 17:34N 53°51' E 008°47'1515.3
2016-Nov-24 16:33N 53°59' E 008°26'1616.0
2016-Nov-24 15:33N 53°58' E 007°58'5014.8
2016-Nov-24 12:11N 53°46' E 006°36'1014.2
2016-Nov-24 11:29N 53°44' E 006°20'1314.2
2016-Nov-24 10:33N 53°40' E 005°59'1414.1
2016-Nov-24 09:33N 53°35' E 005°36'1413.8
2016-Nov-24 08:33N 53°31' E 005°14'1413.9
2016-Nov-24 07:33N 53°26' E 004°52'2913.5
2016-Nov-24 05:24N 53°02' E 004°23'1214.0
2016-Nov-24 04:33N 52°52' E 004°14'1413.7
2016-Nov-24 03:34N 52°40' E 004°02'1513.8
2016-Nov-24 02:28N 52°26' E 003°53'1314.5
2016-Nov-24 01:34N 52°13' E 003°53'1211.6
2016-Nov-24 00:33N 52°02' E 003°57'  
Track history (hours):
 
Tides and Currents Weather Stations Pressure Air Temp Water Temp Dewpoint Dewpoint Depression Visibility Wind Speed Wind Dir Waves Ship Positions

Linda

Last reported at 2016-Dec-04 00:09 UTC. Time now 2016-Dec-04 08:15 UTC.
Position N 57°45' E 010°20'.

Length 141 m; draft 8.6 m.

Type: Ship (hazmat cat A). MMSI: 230984000.

Date/timePositionNaut miles runAvg speedWind from/ knotsBaromVisibWave heightAir tempDewpointWater temp
2016-Dec-04 00:09N 57°45' E 010°20'915.7
2016-Dec-03 23:33N 57°48' E 010°37'1515.3
2016-Dec-03 22:33N 57°40' E 011°02'1615.8
2016-Dec-03 21:33N 57°29' E 011°23'1615.6
2016-Dec-03 20:33N 57°15' E 011°34'1615.4
2016-Dec-03 19:32N 57°00' E 011°44'1615.8
2016-Dec-03 18:32N 56°45' E 011°53'10314.7
2016-Dec-03 11:33N 55°06' E 011°03'1615.5
2016-Dec-03 10:33N 54°52' E 010°53'1414.2
2016-Dec-03 09:33N 54°39' E 011°02'1515.3
2016-Dec-03 08:33N 54°32' E 011°26'1615.5
2016-Dec-03 07:33N 54°26' E 011°51'1612.6
2016-Dec-03 06:17N 54°35' E 012°14'1315.2
2016-Dec-03 05:25N 54°43' E 012°32'3515.8
2016-Dec-03 03:13N 54°56' E 013°28'1116.5
2016-Dec-03 02:34N 54°59' E 013°46'1615.9
2016-Dec-03 01:33N 55°08' E 014°10'1716.6
2016-Dec-03 00:33N 55°21' E 014°28'1616.1
2016-Dec-02 23:33N 55°31' E 014°50'1616.0
2016-Dec-02 22:34N 55°39' E 015°14'340 7.0
2016-Nov-30 22:15N 59°33' E 022°54'1115.7
2016-Nov-30 21:33N 59°37' E 023°14'1615.5
2016-Nov-30 20:33N 59°42' E 023°43'1615.5
2016-Nov-30 19:33N 59°47' E 024°13'39 1.1
2016-Nov-29 09:33N 60°12' E 025°13'15 2.5
2016-Nov-29 03:33N 59°58' E 025°03'1313.1
2016-Nov-29 02:33N 59°56' E 025°29'1613.6
2016-Nov-29 01:23N 59°57' E 026°01'1313.9
2016-Nov-29 00:27N 60°00' E 026°26'1213.4
2016-Nov-28 23:34N 60°00' E 026°50'3213.2
2016-Nov-28 21:08N 60°12' E 027°50'1213.5
2016-Nov-28 20:15N 60°09' E 028°13'913.0
2016-Nov-28 19:33N 60°04' E 028°29'37 6.1
2016-Nov-28 13:25N 60°00' E 029°43'0 0.0
2016-Nov-28 12:28N 60°00' E 029°43'0 0.0
2016-Nov-28 11:31N 60°00' E 029°43'0 0.0
2016-Nov-28 10:19N 60°00' E 029°43'0 0.0
2016-Nov-28 09:31N 60°00' E 029°43'0 0.0
2016-Nov-28 08:25N 60°00' E 029°43'0 0.0
2016-Nov-28 07:31N 60°00' E 029°43'0 0.0
2016-Nov-28 06:31N 60°00' E 029°43'0 0.0
2016-Nov-28 05:32N 60°00' E 029°43'3 2.9
2016-Nov-28 04:33N 60°00' E 029°37'1313.2
2016-Nov-28 03:33N 60°02' E 029°11'1514.9
2016-Nov-28 02:33N 60°02' E 028°41'1414.2
2016-Nov-28 01:33N 60°07' E 028°14'1514.6
2016-Nov-28 00:33N 60°10' E 027°46'1414.4
2016-Nov-27 23:33N 60°03' E 027°21'2113.9
2016-Nov-27 22:04N 59°59' E 026°40'6213.7
2016-Nov-27 17:33N 59°45' E 024°40'3315.1
2016-Nov-27 15:21N 59°35' E 023°37'341 7.4
2016-Nov-25 17:27N 55°44' E 015°47'1516.5
2016-Nov-25 16:33N 55°37' E 015°24'1716.8
2016-Nov-25 15:33N 55°29' E 014°58'1716.5
2016-Nov-25 14:33N 55°20' E 014°34'1716.6
2016-Nov-25 13:33N 55°07' E 014°15'1616.1
2016-Nov-25 12:33N 54°58' E 013°52'1716.5
2016-Nov-25 11:33N 54°51' E 013°26'2016.5
2016-Nov-25 10:21N 54°44' E 012°54'1315.9
2016-Nov-25 09:33N 54°38' E 012°34'1515.2
2016-Nov-25 08:33N 54°28' E 012°15'1514.8
2016-Nov-25 07:32N 54°25' E 011°50'1616.1
2016-Nov-25 06:33N 54°31' E 011°25'1616.2
2016-Nov-25 05:33N 54°35' E 010°58'1616.0
2016-Nov-25 04:33N 54°32' E 010°30'1313.2
2016-Nov-25 03:33N 54°24' E 010°12'3 3.2
2016-Nov-25 02:33N 54°22' E 010°08'6 5.8
2016-Nov-25 01:33N 54°21' E 009°59'7 7.3
2016-Nov-25 00:33N 54°21' E 009°46'8 7.6
2016-Nov-24 23:32N 54°15' E 009°37'7 6.7
2016-Nov-24 22:33N 54°11' E 009°29'8 7.2
2016-Nov-24 21:30N 54°06' E 009°20'7 7.3
2016-Nov-24 20:33N 53°59' E 009°17'7 7.1
2016-Nov-24 19:33N 53°54' E 009°09'1 0.6
2016-Nov-24 18:33N 53°53' E 009°08'1312.5
2016-Nov-24 17:34N 53°51' E 008°47'1515.3
2016-Nov-24 16:33N 53°59' E 008°26'1616.0
2016-Nov-24 15:33N 53°58' E 007°58'5014.8
2016-Nov-24 12:11N 53°46' E 006°36'1014.2
2016-Nov-24 11:29N 53°44' E 006°20'1314.2
2016-Nov-24 10:33N 53°40' E 005°59'1414.1
2016-Nov-24 09:33N 53°35' E 005°36'1413.8
2016-Nov-24 08:33N 53°31' E 005°14'1413.9
2016-Nov-24 07:33N 53°26' E 004°52'2913.5
2016-Nov-24 05:24N 53°02' E 004°23'1214.0
2016-Nov-24 04:33N 52°52' E 004°14'1413.7
2016-Nov-24 03:34N 52°40' E 004°02'1513.8
2016-Nov-24 02:28N 52°26' E 003°53'1314.5
2016-Nov-24 01:34N 52°13' E 003°53'1211.6
2016-Nov-24 00:33N 52°02' E 003°57'  

Dump ship's entire track history